sensor_id;sensor_type;location;lat;lon;timestamp;P1;durP1;ratioP1;P2;durP2;ratioP2
25479;SDS011;13393;49.378;8.686;2023-07-09T00:01:19;5.47;;;3.30;;
25479;SDS011;13393;49.378;8.686;2023-07-09T00:03:46;6.95;;;3.25;;
25479;SDS011;13393;49.378;8.686;2023-07-09T00:06:40;7.05;;;3.55;;
25479;SDS011;13393;49.378;8.686;2023-07-09T00:09:11;6.03;;;2.88;;
25479;SDS011;13393;49.378;8.686;2023-07-09T00:11:39;5.85;;;3.60;;
25479;SDS011;13393;49.378;8.686;2023-07-09T00:14:05;5.25;;;3.42;;
25479;SDS011;13393;49.378;8.686;2023-07-09T00:16:40;4.22;;;3.33;;
25479;SDS011;13393;49.378;8.686;2023-07-09T00:19:11;3.92;;;3.10;;
25479;SDS011;13393;49.378;8.686;2023-07-09T00:21:47;8.70;;;4.00;;
25479;SDS011;13393;49.378;8.686;2023-07-09T00:24:45;4.55;;;3.72;;
25479;SDS011;13393;49.378;8.686;2023-07-09T00:29:57;5.85;;;3.53;;
25479;SDS011;13393;49.378;8.686;2023-07-09T00:32:25;8.88;;;4.10;;
25479;SDS011;13393;49.378;8.686;2023-07-09T00:34:56;6.20;;;3.55;;
25479;SDS011;13393;49.378;8.686;2023-07-09T00:37:23;5.90;;;3.63;;
25479;SDS011;13393;49.378;8.686;2023-07-09T00:39:53;7.25;;;4.00;;
25479;SDS011;13393;49.378;8.686;2023-07-09T00:42:21;5.80;;;3.22;;
25479;SDS011;13393;49.378;8.686;2023-07-09T00:44:50;4.97;;;3.50;;
25479;SDS011;13393;49.378;8.686;2023-07-09T00:47:38;4.82;;;3.55;;
25479;SDS011;13393;49.378;8.686;2023-07-09T00:50:09;6.13;;;3.45;;
25479;SDS011;13393;49.378;8.686;2023-07-09T00:52:43;6.32;;;3.75;;
25479;SDS011;13393;49.378;8.686;2023-07-09T00:55:25;4.82;;;3.40;;
25479;SDS011;13393;49.378;8.686;2023-07-09T00:58:03;6.20;;;3.65;;
25479;SDS011;13393;49.378;8.686;2023-07-09T01:00:34;6.38;;;3.50;;
25479;SDS011;13393;49.378;8.686;2023-07-09T01:03:15;5.57;;;3.83;;
25479;SDS011;13393;49.378;8.686;2023-07-09T01:10:55;5.90;;;4.05;;
25479;SDS011;13393;49.378;8.686;2023-07-09T01:13:22;4.90;;;3.92;;
25479;SDS011;13393;49.378;8.686;2023-07-09T01:15:51;5.00;;;3.83;;
25479;SDS011;13393;49.378;8.686;2023-07-09T01:18:20;7.50;;;4.63;;
25479;SDS011;13393;49.378;8.686;2023-07-09T01:20:47;7.22;;;4.28;;
25479;SDS011;13393;49.378;8.686;2023-07-09T01:23:15;7.70;;;4.45;;
25479;SDS011;13393;49.378;8.686;2023-07-09T01:25:43;6.35;;;4.13;;
25479;SDS011;13393;49.378;8.686;2023-07-09T01:28:19;5.38;;;3.88;;
25479;SDS011;13393;49.378;8.686;2023-07-09T01:30:46;7.30;;;3.50;;
25479;SDS011;13393;49.378;8.686;2023-07-09T01:33:17;5.20;;;3.13;;
25479;SDS011;13393;49.378;8.686;2023-07-09T01:35:45;5.43;;;3.72;;
25479;SDS011;13393;49.378;8.686;2023-07-09T01:38:27;6.20;;;3.90;;
25479;SDS011;13393;49.378;8.686;2023-07-09T01:40:55;5.80;;;3.92;;
25479;SDS011;13393;49.378;8.686;2023-07-09T01:43:22;5.38;;;3.85;;
25479;SDS011;13393;49.378;8.686;2023-07-09T01:45:53;5.65;;;3.63;;
25479;SDS011;13393;49.378;8.686;2023-07-09T01:48:43;6.03;;;4.22;;
25479;SDS011;13393;49.378;8.686;2023-07-09T01:51:10;7.25;;;3.85;;
25479;SDS011;13393;49.378;8.686;2023-07-09T01:53:44;4.93;;;3.72;;
25479;SDS011;13393;49.378;8.686;2023-07-09T01:56:18;5.72;;;3.65;;
25479;SDS011;13393;49.378;8.686;2023-07-09T01:58:46;6.15;;;3.72;;
25479;SDS011;13393;49.378;8.686;2023-07-09T02:01:13;8.00;;;3.80;;
25479;SDS011;13393;49.378;8.686;2023-07-09T02:03:40;6.60;;;3.80;;
25479;SDS011;13393;49.378;8.686;2023-07-09T02:06:06;4.88;;;3.80;;
25479;SDS011;13393;49.378;8.686;2023-07-09T02:08:36;6.82;;;4.22;;
25479;SDS011;13393;49.378;8.686;2023-07-09T02:11:05;9.93;;;4.47;;
25479;SDS011;13393;49.378;8.686;2023-07-09T02:13:32;4.82;;;3.55;;
25479;SDS011;13393;49.378;8.686;2023-07-09T02:15:59;6.65;;;3.80;;
25479;SDS011;13393;49.378;8.686;2023-07-09T02:18:34;6.18;;;4.05;;
25479;SDS011;13393;49.378;8.686;2023-07-09T02:21:17;8.45;;;3.95;;
25479;SDS011;13393;49.378;8.686;2023-07-09T02:23:44;6.22;;;4.07;;
25479;SDS011;13393;49.378;8.686;2023-07-09T02:26:12;6.45;;;3.55;;
25479;SDS011;13393;49.378;8.686;2023-07-09T02:28:54;5.40;;;3.70;;
25479;SDS011;13393;49.378;8.686;2023-07-09T02:31:20;6.50;;;3.85;;
25479;SDS011;13393;49.378;8.686;2023-07-09T02:33:47;6.55;;;4.10;;
25479;SDS011;13393;49.378;8.686;2023-07-09T02:36:13;7.47;;;4.03;;
25479;SDS011;13393;49.378;8.686;2023-07-09T02:38:47;6.43;;;4.03;;
25479;SDS011;13393;49.378;8.686;2023-07-09T02:41:29;5.07;;;3.65;;
25479;SDS011;13393;49.378;8.686;2023-07-09T02:43:57;6.60;;;4.00;;
25479;SDS011;13393;49.378;8.686;2023-07-09T02:46:24;7.75;;;3.80;;
25479;SDS011;13393;49.378;8.686;2023-07-09T02:48:50;5.95;;;3.72;;
25479;SDS011;13393;49.378;8.686;2023-07-09T02:51:17;5.00;;;3.58;;
25479;SDS011;13393;49.378;8.686;2023-07-09T02:53:43;6.07;;;3.90;;
25479;SDS011;13393;49.378;8.686;2023-07-09T02:56:10;5.72;;;3.58;;
25479;SDS011;13393;49.378;8.686;2023-07-09T02:58:38;4.97;;;3.40;;
25479;SDS011;13393;49.378;8.686;2023-07-09T03:01:05;7.78;;;3.95;;
25479;SDS011;13393;49.378;8.686;2023-07-09T03:03:32;5.25;;;3.70;;
25479;SDS011;13393;49.378;8.686;2023-07-09T03:05:59;6.63;;;4.25;;
25479;SDS011;13393;49.378;8.686;2023-07-09T03:11:10;8.73;;;4.18;;
25479;SDS011;13393;49.378;8.686;2023-07-09T03:13:38;7.18;;;4.32;;
25479;SDS011;13393;49.378;8.686;2023-07-09T03:16:14;6.32;;;3.97;;
25479;SDS011;13393;49.378;8.686;2023-07-09T03:18:40;7.03;;;4.40;;
25479;SDS011;13393;49.378;8.686;2023-07-09T03:21:27;7.10;;;4.43;;
25479;SDS011;13393;49.378;8.686;2023-07-09T03:23:54;9.25;;;4.57;;
25479;SDS011;13393;49.378;8.686;2023-07-09T03:26:20;7.10;;;4.57;;
25479;SDS011;13393;49.378;8.686;2023-07-09T03:31:32;5.63;;;4.22;;
25479;SDS011;13393;49.378;8.686;2023-07-09T03:34:00;8.77;;;4.85;;
25479;SDS011;13393;49.378;8.686;2023-07-09T03:36:27;6.00;;;4.95;;
25479;SDS011;13393;49.378;8.686;2023-07-09T03:38:55;8.77;;;5.13;;
25479;SDS011;13393;49.378;8.686;2023-07-09T03:41:21;8.13;;;5.70;;
25479;SDS011;13393;49.378;8.686;2023-07-09T03:43:48;8.85;;;5.50;;
25479;SDS011;13393;49.378;8.686;2023-07-09T03:46:15;7.95;;;5.90;;
25479;SDS011;13393;49.378;8.686;2023-07-09T03:51:43;9.85;;;6.00;;
25479;SDS011;13393;49.378;8.686;2023-07-09T03:54:10;9.00;;;5.22;;
25479;SDS011;13393;49.378;8.686;2023-07-09T03:56:36;8.68;;;5.93;;
25479;SDS011;13393;49.378;8.686;2023-07-09T03:59:03;9.43;;;6.40;;
25479;SDS011;13393;49.378;8.686;2023-07-09T04:01:29;10.77;;;6.30;;
25479;SDS011;13393;49.378;8.686;2023-07-09T04:03:56;9.98;;;6.25;;
25479;SDS011;13393;49.378;8.686;2023-07-09T04:06:22;9.05;;;5.90;;
25479;SDS011;13393;49.378;8.686;2023-07-09T04:08:51;7.63;;;5.00;;
25479;SDS011;13393;49.378;8.686;2023-07-09T04:11:19;9.43;;;5.20;;
25479;SDS011;13393;49.378;8.686;2023-07-09T04:13:47;6.93;;;4.57;;
25479;SDS011;13393;49.378;8.686;2023-07-09T04:16:14;10.30;;;5.10;;
25479;SDS011;13393;49.378;8.686;2023-07-09T04:18:41;6.38;;;5.22;;
25479;SDS011;13393;49.378;8.686;2023-07-09T04:21:07;5.80;;;4.97;;
25479;SDS011;13393;49.378;8.686;2023-07-09T04:23:34;8.50;;;4.88;;
25479;SDS011;13393;49.378;8.686;2023-07-09T04:26:04;10.18;;;4.95;;
25479;SDS011;13393;49.378;8.686;2023-07-09T04:28:34;8.20;;;5.07;;
25479;SDS011;13393;49.378;8.686;2023-07-09T04:31:01;8.35;;;4.90;;
25479;SDS011;13393;49.378;8.686;2023-07-09T04:33:28;8.68;;;4.93;;
25479;SDS011;13393;49.378;8.686;2023-07-09T04:36:08;8.40;;;5.15;;
25479;SDS011;13393;49.378;8.686;2023-07-09T04:38:38;7.32;;;5.20;;
25479;SDS011;13393;49.378;8.686;2023-07-09T04:41:07;8.95;;;5.22;;
25479;SDS011;13393;49.378;8.686;2023-07-09T04:43:36;6.35;;;4.75;;
25479;SDS011;13393;49.378;8.686;2023-07-09T04:46:02;6.43;;;4.60;;
25479;SDS011;13393;49.378;8.686;2023-07-09T04:48:29;8.45;;;5.25;;
25479;SDS011;13393;49.378;8.686;2023-07-09T04:50:55;7.15;;;4.78;;
25479;SDS011;13393;49.378;8.686;2023-07-09T04:53:24;6.40;;;4.60;;
25479;SDS011;13393;49.378;8.686;2023-07-09T04:55:51;10.05;;;4.90;;
25479;SDS011;13393;49.378;8.686;2023-07-09T04:58:19;6.18;;;4.22;;
25479;SDS011;13393;49.378;8.686;2023-07-09T05:00:46;8.05;;;4.90;;
25479;SDS011;13393;49.378;8.686;2023-07-09T05:03:15;8.15;;;4.95;;
25479;SDS011;13393;49.378;8.686;2023-07-09T05:05:42;8.23;;;5.15;;
25479;SDS011;13393;49.378;8.686;2023-07-09T05:08:14;8.32;;;5.47;;
25479;SDS011;13393;49.378;8.686;2023-07-09T05:10:41;11.23;;;5.72;;
25479;SDS011;13393;49.378;8.686;2023-07-09T05:13:10;9.18;;;5.55;;
25479;SDS011;13393;49.378;8.686;2023-07-09T05:15:42;8.77;;;5.65;;
25479;SDS011;13393;49.378;8.686;2023-07-09T05:18:09;6.38;;;4.82;;
25479;SDS011;13393;49.378;8.686;2023-07-09T05:20:36;8.63;;;5.00;;
25479;SDS011;13393;49.378;8.686;2023-07-09T05:23:03;7.95;;;5.00;;
25479;SDS011;13393;49.378;8.686;2023-07-09T05:25:32;8.60;;;4.97;;
25479;SDS011;13393;49.378;8.686;2023-07-09T05:27:59;6.50;;;4.43;;
25479;SDS011;13393;49.378;8.686;2023-07-09T05:30:26;6.57;;;4.57;;
25479;SDS011;13393;49.378;8.686;2023-07-09T05:32:54;5.80;;;4.72;;
25479;SDS011;13393;49.378;8.686;2023-07-09T05:35:22;7.10;;;4.60;;
25479;SDS011;13393;49.378;8.686;2023-07-09T05:37:50;6.97;;;4.47;;
25479;SDS011;13393;49.378;8.686;2023-07-09T05:40:17;4.90;;;4.40;;
25479;SDS011;13393;49.378;8.686;2023-07-09T05:42:43;7.97;;;4.63;;
25479;SDS011;13393;49.378;8.686;2023-07-09T05:45:10;7.38;;;5.40;;
25479;SDS011;13393;49.378;8.686;2023-07-09T05:47:36;5.65;;;4.70;;
25479;SDS011;13393;49.378;8.686;2023-07-09T05:50:12;7.85;;;4.82;;
25479;SDS011;13393;49.378;8.686;2023-07-09T05:52:40;5.95;;;4.63;;
25479;SDS011;13393;49.378;8.686;2023-07-09T05:55:16;9.05;;;5.18;;
25479;SDS011;13393;49.378;8.686;2023-07-09T05:57:43;6.75;;;4.82;;
25479;SDS011;13393;49.378;8.686;2023-07-09T06:00:10;7.97;;;5.00;;
25479;SDS011;13393;49.378;8.686;2023-07-09T06:02:42;5.68;;;4.55;;
25479;SDS011;13393;49.378;8.686;2023-07-09T06:05:10;6.60;;;4.47;;
25479;SDS011;13393;49.378;8.686;2023-07-09T06:07:39;10.07;;;5.53;;
25479;SDS011;13393;49.378;8.686;2023-07-09T06:10:07;7.05;;;4.43;;
25479;SDS011;13393;49.378;8.686;2023-07-09T06:12:41;8.02;;;4.63;;
25479;SDS011;13393;49.378;8.686;2023-07-09T06:15:07;6.05;;;4.60;;
25479;SDS011;13393;49.378;8.686;2023-07-09T06:17:34;8.55;;;4.80;;
25479;SDS011;13393;49.378;8.686;2023-07-09T06:20:03;7.80;;;4.82;;
25479;SDS011;13393;49.378;8.686;2023-07-09T06:22:34;9.63;;;4.60;;
25479;SDS011;13393;49.378;8.686;2023-07-09T06:25:03;6.95;;;4.85;;
25479;SDS011;13393;49.378;8.686;2023-07-09T06:27:30;6.60;;;4.47;;
25479;SDS011;13393;49.378;8.686;2023-07-09T06:29:56;9.07;;;5.10;;
25479;SDS011;13393;49.378;8.686;2023-07-09T06:32:24;6.57;;;4.85;;
25479;SDS011;13393;49.378;8.686;2023-07-09T06:34:51;5.65;;;4.00;;
25479;SDS011;13393;49.378;8.686;2023-07-09T06:37:17;7.78;;;4.75;;
25479;SDS011;13393;49.378;8.686;2023-07-09T06:39:56;5.45;;;4.20;;
25479;SDS011;13393;49.378;8.686;2023-07-09T06:42:22;7.30;;;4.85;;
25479;SDS011;13393;49.378;8.686;2023-07-09T06:44:49;6.97;;;4.10;;
25479;SDS011;13393;49.378;8.686;2023-07-09T06:47:15;8.60;;;4.28;;
25479;SDS011;13393;49.378;8.686;2023-07-09T06:49:42;7.28;;;4.30;;
25479;SDS011;13393;49.378;8.686;2023-07-09T06:52:09;8.63;;;4.68;;
25479;SDS011;13393;49.378;8.686;2023-07-09T06:54:35;7.20;;;4.28;;
25479;SDS011;13393;49.378;8.686;2023-07-09T06:57:04;8.52;;;4.45;;
25479;SDS011;13393;49.378;8.686;2023-07-09T06:59:31;8.50;;;4.20;;
25479;SDS011;13393;49.378;8.686;2023-07-09T07:01:58;8.05;;;4.80;;
25479;SDS011;13393;49.378;8.686;2023-07-09T07:04:25;6.13;;;4.40;;
25479;SDS011;13393;49.378;8.686;2023-07-09T07:06:51;9.02;;;3.92;;
25479;SDS011;13393;49.378;8.686;2023-07-09T07:09:22;5.97;;;4.07;;
25479;SDS011;13393;49.378;8.686;2023-07-09T07:11:48;8.25;;;4.53;;
25479;SDS011;13393;49.378;8.686;2023-07-09T07:14:22;8.52;;;4.35;;
25479;SDS011;13393;49.378;8.686;2023-07-09T07:16:49;6.38;;;4.18;;
25479;SDS011;13393;49.378;8.686;2023-07-09T07:19:16;6.68;;;4.25;;
25479;SDS011;13393;49.378;8.686;2023-07-09T07:21:42;6.65;;;4.43;;
25479;SDS011;13393;49.378;8.686;2023-07-09T07:24:12;4.68;;;4.18;;
25479;SDS011;13393;49.378;8.686;2023-07-09T07:26:41;5.05;;;3.80;;
25479;SDS011;13393;49.378;8.686;2023-07-09T07:29:26;5.88;;;3.90;;
25479;SDS011;13393;49.378;8.686;2023-07-09T07:31:53;10.05;;;3.70;;
25479;SDS011;13393;49.378;8.686;2023-07-09T07:34:20;6.43;;;4.00;;
25479;SDS011;13393;49.378;8.686;2023-07-09T07:36:47;6.68;;;4.22;;
25479;SDS011;13393;49.378;8.686;2023-07-09T07:39:14;5.72;;;4.10;;
25479;SDS011;13393;49.378;8.686;2023-07-09T07:41:40;7.15;;;4.38;;
25479;SDS011;13393;49.378;8.686;2023-07-09T07:44:07;6.13;;;4.38;;
25479;SDS011;13393;49.378;8.686;2023-07-09T07:46:35;9.07;;;4.40;;
25479;SDS011;13393;49.378;8.686;2023-07-09T07:49:01;7.47;;;5.15;;
25479;SDS011;13393;49.378;8.686;2023-07-09T07:51:35;4.75;;;4.07;;
25479;SDS011;13393;49.378;8.686;2023-07-09T07:54:02;6.40;;;4.22;;
25479;SDS011;13393;49.378;8.686;2023-07-09T07:56:29;9.13;;;4.15;;
25479;SDS011;13393;49.378;8.686;2023-07-09T07:59:00;8.20;;;4.68;;
25479;SDS011;13393;49.378;8.686;2023-07-09T08:01:27;8.45;;;4.38;;
25479;SDS011;13393;49.378;8.686;2023-07-09T08:03:55;7.65;;;4.03;;
25479;SDS011;13393;49.378;8.686;2023-07-09T08:06:21;7.55;;;4.25;;
25479;SDS011;13393;49.378;8.686;2023-07-09T08:08:48;5.82;;;4.35;;
25479;SDS011;13393;49.378;8.686;2023-07-09T08:11:15;7.75;;;4.65;;
25479;SDS011;13393;49.378;8.686;2023-07-09T08:13:41;5.03;;;3.70;;
25479;SDS011;13393;49.378;8.686;2023-07-09T08:16:07;7.47;;;4.90;;
25479;SDS011;13393;49.378;8.686;2023-07-09T08:18:36;7.32;;;4.53;;
25479;SDS011;13393;49.378;8.686;2023-07-09T08:21:04;8.35;;;4.25;;
25479;SDS011;13393;49.378;8.686;2023-07-09T08:23:30;5.93;;;4.28;;
25479;SDS011;13393;49.378;8.686;2023-07-09T08:25:58;7.28;;;4.25;;
25479;SDS011;13393;49.378;8.686;2023-07-09T08:28:25;4.97;;;3.92;;
25479;SDS011;13393;49.378;8.686;2023-07-09T08:30:52;8.68;;;4.85;;
25479;SDS011;13393;49.378;8.686;2023-07-09T08:33:19;7.82;;;4.53;;
25479;SDS011;13393;49.378;8.686;2023-07-09T08:35:45;6.13;;;4.07;;
25479;SDS011;13393;49.378;8.686;2023-07-09T08:38:13;4.60;;;3.97;;
25479;SDS011;13393;49.378;8.686;2023-07-09T08:40:40;5.82;;;4.10;;
25479;SDS011;13393;49.378;8.686;2023-07-09T08:43:10;7.05;;;4.43;;
25479;SDS011;13393;49.378;8.686;2023-07-09T08:45:40;3.85;;;3.47;;
25479;SDS011;13393;49.378;8.686;2023-07-09T08:48:12;6.13;;;4.07;;
25479;SDS011;13393;49.378;8.686;2023-07-09T08:50:42;6.20;;;3.75;;
25479;SDS011;13393;49.378;8.686;2023-07-09T08:53:09;4.60;;;3.65;;
25479;SDS011;13393;49.378;8.686;2023-07-09T08:55:41;6.00;;;4.50;;
25479;SDS011;13393;49.378;8.686;2023-07-09T08:58:10;6.63;;;4.03;;
25479;SDS011;13393;49.378;8.686;2023-07-09T09:00:40;6.60;;;4.00;;
25479;SDS011;13393;49.378;8.686;2023-07-09T09:03:09;6.32;;;4.03;;
25479;SDS011;13393;49.378;8.686;2023-07-09T09:05:37;6.28;;;3.95;;
25479;SDS011;13393;49.378;8.686;2023-07-09T09:08:08;6.50;;;3.67;;
25479;SDS011;13393;49.378;8.686;2023-07-09T09:10:44;7.35;;;4.05;;
25479;SDS011;13393;49.378;8.686;2023-07-09T09:13:13;4.82;;;3.95;;
25479;SDS011;13393;49.378;8.686;2023-07-09T09:15:41;5.78;;;4.30;;
25479;SDS011;13393;49.378;8.686;2023-07-09T09:21:08;5.55;;;4.15;;
25479;SDS011;13393;49.378;8.686;2023-07-09T09:23:37;6.82;;;3.85;;
25479;SDS011;13393;49.378;8.686;2023-07-09T09:26:09;7.57;;;3.83;;
25479;SDS011;13393;49.378;8.686;2023-07-09T09:28:37;7.60;;;4.30;;
25479;SDS011;13393;49.378;8.686;2023-07-09T09:31:04;9.00;;;3.92;;
25479;SDS011;13393;49.378;8.686;2023-07-09T09:33:36;4.82;;;3.65;;
25479;SDS011;13393;49.378;8.686;2023-07-09T09:36:03;7.70;;;4.03;;
25479;SDS011;13393;49.378;8.686;2023-07-09T09:38:31;6.55;;;3.70;;
25479;SDS011;13393;49.378;8.686;2023-07-09T09:41:01;4.80;;;3.80;;
25479;SDS011;13393;49.378;8.686;2023-07-09T09:43:32;5.50;;;3.60;;
25479;SDS011;13393;49.378;8.686;2023-07-09T09:46:05;6.95;;;3.85;;
25479;SDS011;13393;49.378;8.686;2023-07-09T09:48:32;6.10;;;3.17;;
25479;SDS011;13393;49.378;8.686;2023-07-09T09:50:59;4.93;;;3.70;;
25479;SDS011;13393;49.378;8.686;2023-07-09T09:53:29;4.57;;;3.15;;
25479;SDS011;13393;49.378;8.686;2023-07-09T09:55:56;4.57;;;3.50;;
25479;SDS011;13393;49.378;8.686;2023-07-09T09:58:26;4.07;;;3.45;;
25479;SDS011;13393;49.378;8.686;2023-07-09T10:00:56;6.00;;;3.70;;
25479;SDS011;13393;49.378;8.686;2023-07-09T10:03:32;7.53;;;3.75;;
25479;SDS011;13393;49.378;8.686;2023-07-09T10:05:59;5.75;;;4.00;;
25479;SDS011;13393;49.378;8.686;2023-07-09T10:08:33;8.25;;;3.35;;
25479;SDS011;13393;49.378;8.686;2023-07-09T10:11:05;7.20;;;3.55;;
25479;SDS011;13393;49.378;8.686;2023-07-09T10:13:35;4.28;;;3.10;;
25479;SDS011;13393;49.378;8.686;2023-07-09T10:16:07;4.90;;;3.40;;
25479;SDS011;13393;49.378;8.686;2023-07-09T10:18:41;5.63;;;3.30;;
25479;SDS011;13393;49.378;8.686;2023-07-09T10:21:10;5.10;;;3.05;;
25479;SDS011;13393;49.378;8.686;2023-07-09T10:23:43;5.78;;;3.42;;
25479;SDS011;13393;49.378;8.686;2023-07-09T10:26:13;5.47;;;3.30;;
25479;SDS011;13393;49.378;8.686;2023-07-09T10:28:50;4.20;;;3.25;;
25479;SDS011;13393;49.378;8.686;2023-07-09T10:31:24;3.63;;;2.78;;
25479;SDS011;13393;49.378;8.686;2023-07-09T10:33:59;7.65;;;3.70;;
25479;SDS011;13393;49.378;8.686;2023-07-09T10:36:30;4.25;;;2.85;;
25479;SDS011;13393;49.378;8.686;2023-07-09T10:39:01;5.90;;;3.28;;
25479;SDS011;13393;49.378;8.686;2023-07-09T10:41:28;8.77;;;3.55;;
25479;SDS011;13393;49.378;8.686;2023-07-09T10:43:57;9.95;;;3.65;;
25479;SDS011;13393;49.378;8.686;2023-07-09T10:46:27;5.90;;;3.05;;
25479;SDS011;13393;49.378;8.686;2023-07-09T10:48:54;5.68;;;3.15;;
25479;SDS011;13393;49.378;8.686;2023-07-09T10:51:23;3.78;;;3.10;;
25479;SDS011;13393;49.378;8.686;2023-07-09T10:53:52;5.40;;;3.05;;
25479;SDS011;13393;49.378;8.686;2023-07-09T10:56:23;3.35;;;3.05;;
25479;SDS011;13393;49.378;8.686;2023-07-09T10:58:52;6.05;;;3.42;;
25479;SDS011;13393;49.378;8.686;2023-07-09T11:01:21;4.75;;;3.47;;
25479;SDS011;13393;49.378;8.686;2023-07-09T11:03:55;4.00;;;3.05;;
25479;SDS011;13393;49.378;8.686;2023-07-09T11:06:25;3.90;;;3.03;;
25479;SDS011;13393;49.378;8.686;2023-07-09T11:08:53;3.13;;;2.83;;
25479;SDS011;13393;49.378;8.686;2023-07-09T11:11:25;4.40;;;3.42;;
25479;SDS011;13393;49.378;8.686;2023-07-09T11:13:54;5.28;;;3.13;;
25479;SDS011;13393;49.378;8.686;2023-07-09T11:16:29;4.57;;;3.30;;
25479;SDS011;13393;49.378;8.686;2023-07-09T11:19:03;4.65;;;3.70;;
25479;SDS011;13393;49.378;8.686;2023-07-09T11:21:31;3.70;;;2.95;;
25479;SDS011;13393;49.378;8.686;2023-07-09T11:23:58;3.33;;;2.80;;
25479;SDS011;13393;49.378;8.686;2023-07-09T11:29:14;6.30;;;3.97;;
25479;SDS011;13393;49.378;8.686;2023-07-09T11:31:41;4.43;;;3.63;;
25479;SDS011;13393;49.378;8.686;2023-07-09T11:37:11;7.43;;;4.97;;
25479;SDS011;13393;49.378;8.686;2023-07-09T11:39:47;8.70;;;4.80;;
25479;SDS011;13393;49.378;8.686;2023-07-09T11:42:28;5.22;;;3.33;;
25479;SDS011;13393;49.378;8.686;2023-07-09T11:44:57;6.22;;;3.60;;
25479;SDS011;13393;49.378;8.686;2023-07-09T11:47:25;5.45;;;4.03;;
25479;SDS011;13393;49.378;8.686;2023-07-09T11:49:57;7.43;;;4.40;;
25479;SDS011;13393;49.378;8.686;2023-07-09T11:52:27;9.38;;;5.65;;
25479;SDS011;13393;49.378;8.686;2023-07-09T11:54:54;6.30;;;4.30;;
25479;SDS011;13393;49.378;8.686;2023-07-09T11:57:21;5.32;;;4.05;;
25479;SDS011;13393;49.378;8.686;2023-07-09T11:59:47;6.88;;;3.97;;
25479;SDS011;13393;49.378;8.686;2023-07-09T12:02:16;7.63;;;3.97;;
25479;SDS011;13393;49.378;8.686;2023-07-09T12:04:43;4.47;;;3.17;;
25479;SDS011;13393;49.378;8.686;2023-07-09T12:07:12;4.72;;;3.25;;
25479;SDS011;13393;49.378;8.686;2023-07-09T12:09:41;4.80;;;3.45;;
25479;SDS011;13393;49.378;8.686;2023-07-09T12:12:16;4.85;;;2.97;;
25479;SDS011;13393;49.378;8.686;2023-07-09T12:14:42;6.22;;;3.33;;
25479;SDS011;13393;49.378;8.686;2023-07-09T12:17:09;5.43;;;3.13;;
25479;SDS011;13393;49.378;8.686;2023-07-09T12:19:35;3.75;;;2.95;;
25479;SDS011;13393;49.378;8.686;2023-07-09T12:22:05;5.93;;;2.63;;
25479;SDS011;13393;49.378;8.686;2023-07-09T12:24:35;3.78;;;2.70;;
25479;SDS011;13393;49.378;8.686;2023-07-09T12:27:16;4.45;;;2.83;;
25479;SDS011;13393;49.378;8.686;2023-07-09T12:29:43;6.90;;;3.70;;
25479;SDS011;13393;49.378;8.686;2023-07-09T12:32:11;3.72;;;2.67;;
25479;SDS011;13393;49.378;8.686;2023-07-09T12:34:38;3.28;;;2.70;;
25479;SDS011;13393;49.378;8.686;2023-07-09T12:37:04;4.22;;;2.78;;
25479;SDS011;13393;49.378;8.686;2023-07-09T12:39:32;6.20;;;3.20;;
25479;SDS011;13393;49.378;8.686;2023-07-09T12:42:00;3.58;;;2.95;;
25479;SDS011;13393;49.378;8.686;2023-07-09T12:44:29;4.63;;;3.00;;
25479;SDS011;13393;49.378;8.686;2023-07-09T12:46:57;5.18;;;2.83;;
25479;SDS011;13393;49.378;8.686;2023-07-09T12:49:26;7.40;;;3.40;;
25479;SDS011;13393;49.378;8.686;2023-07-09T12:51:53;3.97;;;2.70;;
25479;SDS011;13393;49.378;8.686;2023-07-09T12:54:20;6.40;;;3.17;;
25479;SDS011;13393;49.378;8.686;2023-07-09T12:56:50;3.97;;;3.08;;
25479;SDS011;13393;49.378;8.686;2023-07-09T12:59:18;4.90;;;2.97;;
25479;SDS011;13393;49.378;8.686;2023-07-09T13:01:49;5.68;;;3.08;;
25479;SDS011;13393;49.378;8.686;2023-07-09T13:04:16;4.32;;;2.70;;
25479;SDS011;13393;49.378;8.686;2023-07-09T13:06:43;5.38;;;3.35;;
25479;SDS011;13393;49.378;8.686;2023-07-09T13:09:12;7.72;;;3.38;;
25479;SDS011;13393;49.378;8.686;2023-07-09T13:11:40;7.05;;;3.15;;
25479;SDS011;13393;49.378;8.686;2023-07-09T13:14:11;7.50;;;3.40;;
25479;SDS011;13393;49.378;8.686;2023-07-09T13:16:43;3.22;;;2.80;;
25479;SDS011;13393;49.378;8.686;2023-07-09T13:19:13;5.75;;;3.22;;
25479;SDS011;13393;49.378;8.686;2023-07-09T13:21:40;4.70;;;2.70;;
25479;SDS011;13393;49.378;8.686;2023-07-09T13:24:12;4.32;;;3.00;;
25479;SDS011;13393;49.378;8.686;2023-07-09T13:26:39;5.65;;;2.78;;
25479;SDS011;13393;49.378;8.686;2023-07-09T13:29:09;5.53;;;3.00;;
25479;SDS011;13393;49.378;8.686;2023-07-09T13:31:36;4.57;;;3.13;;
25479;SDS011;13393;49.378;8.686;2023-07-09T13:34:04;4.78;;;2.90;;
25479;SDS011;13393;49.378;8.686;2023-07-09T13:36:36;6.18;;;3.38;;
25479;SDS011;13393;49.378;8.686;2023-07-09T13:39:02;6.55;;;3.58;;
25479;SDS011;13393;49.378;8.686;2023-07-09T13:41:30;5.85;;;3.20;;
25479;SDS011;13393;49.378;8.686;2023-07-09T13:43:56;5.22;;;3.17;;
25479;SDS011;13393;49.378;8.686;2023-07-09T13:46:23;5.38;;;2.97;;
25479;SDS011;13393;49.378;8.686;2023-07-09T13:48:52;5.05;;;3.00;;
25479;SDS011;13393;49.378;8.686;2023-07-09T13:51:20;3.78;;;2.97;;
25479;SDS011;13393;49.378;8.686;2023-07-09T13:53:48;6.13;;;3.05;;
25479;SDS011;13393;49.378;8.686;2023-07-09T13:56:16;3.67;;;3.17;;
25479;SDS011;13393;49.378;8.686;2023-07-09T13:58:42;4.93;;;3.10;;
25479;SDS011;13393;49.378;8.686;2023-07-09T14:01:10;5.88;;;2.80;;
25479;SDS011;13393;49.378;8.686;2023-07-09T14:03:37;5.00;;;3.13;;
25479;SDS011;13393;49.378;8.686;2023-07-09T14:06:03;4.55;;;2.80;;
25479;SDS011;13393;49.378;8.686;2023-07-09T14:08:30;4.38;;;3.10;;
25479;SDS011;13393;49.378;8.686;2023-07-09T14:10:58;6.63;;;3.33;;
25479;SDS011;13393;49.378;8.686;2023-07-09T14:13:25;4.88;;;3.10;;
25479;SDS011;13393;49.378;8.686;2023-07-09T14:15:51;4.30;;;2.88;;
25479;SDS011;13393;49.378;8.686;2023-07-09T14:18:19;5.22;;;2.88;;
25479;SDS011;13393;49.378;8.686;2023-07-09T14:20:45;5.32;;;2.95;;
25479;SDS011;13393;49.378;8.686;2023-07-09T14:23:13;5.65;;;2.85;;
25479;SDS011;13393;49.378;8.686;2023-07-09T14:25:40;5.10;;;3.45;;
25479;SDS011;13393;49.378;8.686;2023-07-09T14:28:10;4.97;;;2.78;;
25479;SDS011;13393;49.378;8.686;2023-07-09T14:30:37;7.90;;;3.17;;
25479;SDS011;13393;49.378;8.686;2023-07-09T14:33:07;6.80;;;3.42;;
25479;SDS011;13393;49.378;8.686;2023-07-09T14:35:35;5.72;;;3.00;;
25479;SDS011;13393;49.378;8.686;2023-07-09T14:38:03;5.30;;;3.35;;
25479;SDS011;13393;49.378;8.686;2023-07-09T14:40:30;3.42;;;3.10;;
25479;SDS011;13393;49.378;8.686;2023-07-09T14:42:57;5.35;;;3.20;;
25479;SDS011;13393;49.378;8.686;2023-07-09T14:45:26;5.22;;;3.35;;
25479;SDS011;13393;49.378;8.686;2023-07-09T14:47:53;4.97;;;2.85;;
25479;SDS011;13393;49.378;8.686;2023-07-09T14:50:21;5.68;;;3.08;;
25479;SDS011;13393;49.378;8.686;2023-07-09T14:52:48;4.53;;;3.00;;
25479;SDS011;13393;49.378;8.686;2023-07-09T14:55:18;4.28;;;3.13;;
25479;SDS011;13393;49.378;8.686;2023-07-09T14:57:45;7.03;;;3.28;;
25479;SDS011;13393;49.378;8.686;2023-07-09T15:00:12;4.80;;;3.13;;
25479;SDS011;13393;49.378;8.686;2023-07-09T15:02:41;4.88;;;3.10;;
25479;SDS011;13393;49.378;8.686;2023-07-09T15:05:11;4.50;;;2.75;;
25479;SDS011;13393;49.378;8.686;2023-07-09T15:07:38;6.22;;;2.90;;
25479;SDS011;13393;49.378;8.686;2023-07-09T15:10:05;4.47;;;3.10;;
25479;SDS011;13393;49.378;8.686;2023-07-09T15:12:34;6.57;;;3.10;;
25479;SDS011;13393;49.378;8.686;2023-07-09T15:15:06;3.90;;;2.95;;
25479;SDS011;13393;49.378;8.686;2023-07-09T15:17:38;7.35;;;3.08;;
25479;SDS011;13393;49.378;8.686;2023-07-09T15:20:07;4.95;;;3.22;;
25479;SDS011;13393;49.378;8.686;2023-07-09T15:22:39;4.65;;;3.03;;
25479;SDS011;13393;49.378;8.686;2023-07-09T15:25:08;3.65;;;3.20;;